Time;durP1;ratioP1;P1;durP2;ratioP2;P2;SDS_P1;SDS_P2;PMS_P1;PMS_P2;Temp;Humidity;BMP_temperature;BMP_pressure;BME280_temperature;BME280_humidity;BME280_pressure;Samples;Min_cycle;Max_cycle;Signal;HPM_P1;HPM_P2
2022/11/21 00:00:31;;;;;;;7.80;7.07;;;;;;;;;;4790857;29;20112;-78
2022/11/21 00:03:01;;;;;;;6.05;4.75;;;;;;;;;;4787994;29;20050;-78
2022/11/21 00:05:29;;;;;;;4.82;4.53;;;;;;;;;;4789079;29;20050;-80
2022/11/21 00:07:57;;;;;;;6.43;5.78;;;;;;;;;;4796312;29;20074;-79
2022/11/21 00:10:25;;;;;;;5.75;5.45;;;;;;;;;;4783925;29;20069;-78
2022/11/21 00:12:53;;;;;;;4.78;4.47;;;;;;;;;;4769153;29;20082;-79
2022/11/21 00:15:21;;;;;;;4.97;4.68;;;;;;;;;;4788844;29;21763;-79
2022/11/21 00:17:48;;;;;;;4.93;4.63;;;;;;;;;;4775017;29;20078;-80
2022/11/21 00:20:18;;;;;;;4.47;4.20;;;;;;;;;;4787447;29;20101;-80
2022/11/21 00:22:45;;;;;;;4.85;4.55;;;;;;;;;;4780963;29;20071;-80
2022/11/21 00:25:13;;;;;;;5.07;4.82;;;;;;;;;;4802743;29;20047;-80
2022/11/21 00:27:40;;;;;;;5.57;5.22;;;;;;;;;;4783715;29;20138;-78
2022/11/21 00:30:08;;;;;;;6.85;6.43;;;;;;;;;;4784383;29;20139;-79
2022/11/21 00:32:36;;;;;;;6.82;6.22;;;;;;;;;;4792140;29;20142;-79
2022/11/21 00:35:03;;;;;;;6.97;6.53;;;;;;;;;;4787287;29;20150;-79
2022/11/21 00:37:34;;;;;;;6.70;6.18;;;;;;;;;;4792200;29;20096;-78
2022/11/21 00:40:01;;;;;;;6.15;5.82;;;;;;;;;;4789416;29;20122;-79
2022/11/21 00:42:28;;;;;;;6.32;5.93;;;;;;;;;;4795685;29;20564;-79
2022/11/21 00:44:55;;;;;;;6.47;6.05;;;;;;;;;;4793346;29;20134;-80
2022/11/21 00:47:23;;;;;;;7.60;7.03;;;;;;;;;;4778274;29;20086;-78
2022/11/21 00:49:50;;;;;;;6.70;6.32;;;;;;;;;;4793141;29;20467;-79
2022/11/21 00:52:17;;;;;;;7.10;6.47;;;;;;;;;;4786876;29;20051;-80
2022/11/21 00:54:45;;;;;;;4.80;4.50;;;;;;;;;;4787930;29;20066;-78
2022/11/21 00:57:12;;;;;;;8.30;7.60;;;;;;;;;;4783505;29;20479;-78
2022/11/21 00:59:40;;;;;;;4.78;4.55;;;;;;;;;;4787898;29;20142;-80
2022/11/21 01:02:07;;;;;;;4.80;4.47;;;;;;;;;;4779032;29;20109;-79
2022/11/21 01:04:34;;;;;;;4.85;4.55;;;;;;;;;;4792492;29;20050;-79
2022/11/21 01:07:02;;;;;;;5.28;4.95;;;;;;;;;;4787216;29;20510;-79
2022/11/21 01:09:29;;;;;;;5.55;5.22;;;;;;;;;;4794986;29;20503;-79
2022/11/21 01:11:57;;;;;;;5.80;5.35;;;;;;;;;;4785213;29;20058;-79
2022/11/21 01:14:24;;;;;;;5.32;4.88;;;;;;;;;;4796357;29;20407;-78
2022/11/21 01:16:52;;;;;;;4.68;4.40;;;;;;;;;;4793967;29;20096;-78
2022/11/21 01:19:19;;;;;;;4.50;4.25;;;;;;;;;;4794330;29;20051;-78
2022/11/21 01:21:46;;;;;;;3.97;3.67;;;;;;;;;;4788678;29;20474;-78
2022/11/21 01:24:14;;;;;;;20.77;19.52;;;;;;;;;;4795213;29;20406;-79
2022/11/21 01:26:41;;;;;;;3.60;3.40;;;;;;;;;;4788287;29;20059;-78
2022/11/21 01:29:08;;;;;;;3.72;3.60;;;;;;;;;;4772506;29;20039;-80
2022/11/21 01:31:35;;;;;;;4.15;3.95;;;;;;;;;;4788203;29;20054;-80
2022/11/21 01:34:03;;;;;;;4.40;4.15;;;;;;;;;;4794322;29;20459;-79
2022/11/21 01:36:32;;;;;;;3.83;3.63;;;;;;;;;;4788142;29;21361;-79
2022/11/21 01:39:01;;;;;;;5.10;4.80;;;;;;;;;;4788204;29;20055;-79
2022/11/21 01:41:32;;;;;;;4.30;4.10;;;;;;;;;;4806013;29;20487;-79
2022/11/21 01:44:00;;;;;;;3.53;3.42;;;;;;;;;;4786804;29;20048;-79
2022/11/21 01:46:28;;;;;;;10.25;9.70;;;;;;;;;;4779681;29;20122;-80
2022/11/21 01:49:10;;;;;;;6.78;6.38;;;;;;;;;;4786080;29;20707;-80
2022/11/21 01:51:40;;;;;;;3.67;3.55;;;;;;;;;;4777800;29;20420;-79
2022/11/21 01:54:12;;;;;;;3.53;3.42;;;;;;;;;;4792340;29;20047;-80
2022/11/21 01:57:09;;;;;;;4.03;3.83;;;;;;;;;;4789736;29;20427;-79
2022/11/21 01:59:44;;;;;;;4.88;4.68;;;;;;;;;;4764709;29;20143;-80
2022/11/21 02:02:12;;;;;;;3.08;2.97;;;;;;;;;;4806699;24;21267;-81
2022/11/21 02:04:41;;;;;;;3.20;3.10;;;;;;;;;;4828077;29;20136;-82
2022/11/21 02:07:16;;;;;;;3.03;2.92;;;;;;;;;;4826304;29;20062;-82
2022/11/21 02:09:47;;;;;;;3.22;3.13;;;;;;;;;;4800582;29;20058;-82
2022/11/21 02:12:34;;;;;;;3.15;3.05;;;;;;;;;;4811410;29;20082;-83
2022/11/21 02:15:14;;;;;;;2.88;2.75;;;;;;;;;;4821519;29;21287;-82
2022/11/21 02:17:49;;;;;;;3.15;3.05;;;;;;;;;;4816077;29;20050;-82
2022/11/21 02:20:29;;;;;;;2.83;2.72;;;;;;;;;;4837684;29;20051;-83
2022/11/21 02:23:57;;;;;;;3.20;3.10;;;;;;;;;;4819491;29;20056;-83
2022/11/21 02:26:42;;;;;;;2.88;2.78;;;;;;;;;;4784465;29;20042;-83
2022/11/21 02:29:24;;;;;;;3.22;3.13;;;;;;;;;;4802259;29;20054;-83
2022/11/21 02:32:02;;;;;;;2.92;2.83;;;;;;;;;;4797109;29;20057;-83
2022/11/21 02:35:24;;;;;;;3.25;3.15;;;;;;;;;;4796524;29;20057;-83
2022/11/21 02:38:53;;;;;;;2.80;2.70;;;;;;;;;;4789305;29;20078;-83
2022/11/21 02:45:57;;;;;;;3.20;3.10;;;;;;;;;;4829573;29;20081;-83
2022/11/21 02:49:07;;;;;;;3.10;3.00;;;;;;;;;;4787266;29;20050;-84
2022/11/21 02:52:42;;;;;;;3.42;3.33;;;;;;;;;;4824458;29;20149;-83
2022/11/21 02:56:12;;;;;;;3.15;3.05;;;;;;;;;;4795217;29;20187;-83
2022/11/21 02:59:04;;;;;;;3.38;3.28;;;;;;;;;;4807772;29;20581;-83
2022/11/21 03:02:24;;;;;;;3.13;3.00;;;;;;;;;;4792408;29;20580;-82
2022/11/21 03:06:11;;;;;;;3.05;2.95;;;;;;;;;;4801465;29;20421;-82
2022/11/21 03:10:05;;;;;;;3.33;3.20;;;;;;;;;;4802009;29;20038;-83
2022/11/21 03:17:36;;;;;;;2.90;2.80;;;;;;;;;;4782091;29;20088;-82
2022/11/21 03:25:02;;;;;;;3.03;2.92;;;;;;;;;;4826951;29;20559;-82
2022/11/21 03:33:18;;;;;;;3.15;3.05;;;;;;;;;;4813204;29;20042;-82
2022/11/21 03:37:04;;;;;;;3.47;3.00;;;;;;;;;;4817921;29;20154;-81
2022/11/21 03:40:48;;;;;;;3.00;2.90;;;;;;;;;;4761138;30;20061;-81
2022/11/21 03:48:44;;;;;;;3.60;3.50;;;;;;;;;;4733848;30;20067;-82
2022/11/21 03:56:21;;;;;;;;;;;;;;;;;;;;;
2022/11/21 04:00:23;;;;;;;3.40;3.30;;;;;;;;;;4703228;30;20065;-82
2022/11/21 04:04:12;;;;;;;3.50;3.30;;;;;;;;;;4691822;30;20611;-82
2022/11/21 04:08:57;;;;;;;;;;;;;;;;;;;;;
2022/11/21 04:24:44;;;;;;;3.47;3.30;;;;;;;;;;4709736;30;20088;-81
2022/11/21 04:27:58;;;;;;;3.33;3.13;;;;;;;;;;4672318;30;20368;-82
2022/11/21 04:35:04;;;;;;;;;;;;;;;;;;;;;
2022/11/21 04:38:43;;;;;;;3.60;3.30;;;;;;;;;;4713512;30;20096;-82
2022/11/21 04:42:48;;;;;;;;;;;;;;;;;;;;;
2022/11/21 04:51:08;;;;;;;;;;;;;;;;;;;;;
2022/11/21 04:54:15;;;;;;;;;;;;;;;;;;4696869;30;20055;-81
2022/11/21 05:01:46;;;;;;;4.90;3.35;;;;;;;;;;4748117;30;20055;-82
2022/11/21 05:16:49;;;;;;;3.85;3.65;;;;;;;;;;4793979;29;20062;-81
2022/11/21 05:19:57;;;;;;;7.13;6.65;;;;;;;;;;4780565;29;20064;-81
2022/11/21 05:22:59;;;;;;;4.60;4.38;;;;;;;;;;4769329;29;20153;-81
2022/11/21 05:26:15;;;;;;;4.90;4.55;;;;;;;;;;4830713;29;20085;-81
2022/11/21 05:33:36;;;;;;;;;;;;;;;;;;;;;
2022/11/21 05:37:04;;;;;;;4.43;4.20;;;;;;;;;;4781518;30;20118;-81
2022/11/21 05:40:52;;;;;;;4.23;3.93;;;;;;;;;;4759218;30;20325;-81
2022/11/21 05:44:34;;;;;;;4.07;3.88;;;;;;;;;;4767200;30;20293;-81
2022/11/21 05:48:44;;;;;;;4.70;4.38;;;;;;;;;;4708756;30;20081;-80
2022/11/21 05:52:15;;;;;;;4.30;4.00;;;;;;;;;;4704473;30;20075;-81
2022/11/21 05:55:55;;;;;;;4.20;3.90;;;;;;;;;;4702872;30;20053;-81
2022/11/21 05:58:58;;;;;;;5.40;4.75;;;;;;;;;;4704409;30;20049;-81
2022/11/21 06:06:32;;;;;;;4.05;3.85;;;;;;;;;;4692925;30;20068;-81
2022/11/21 06:09:46;;;;;;;4.43;4.13;;;;;;;;;;4702205;30;20065;-80
2022/11/21 06:19:52;;;;;;;4.30;3.65;;;;;;;;;;4700314;30;20200;-80
2022/11/21 06:23:02;;;;;;;5.05;3.50;;;;;;;;;;4679596;30;20061;-81
2022/11/21 06:25:47;;;;;;;3.97;3.70;;;;;;;;;;4699252;30;20069;-80
2022/11/21 06:28:53;;;;;;;4.35;4.07;;;;;;;;;;4698285;30;20056;-81
2022/11/21 06:34:53;;;;;;;4.22;4.00;;;;;;;;;;4792800;29;20219;-80
2022/11/21 06:37:36;;;;;;;4.28;4.07;;;;;;;;;;4789990;29;20564;-80
2022/11/21 06:40:29;;;;;;;4.10;3.90;;;;;;;;;;4811072;29;20047;-80
2022/11/21 06:43:21;;;;;;;4.20;4.00;;;;;;;;;;4796046;29;20041;-79
2022/11/21 06:46:06;;;;;;;6.55;6.05;;;;;;;;;;4823256;29;20045;-80
2022/11/21 06:48:40;;;;;;;6.03;5.65;;;;;;;;;;4821019;29;20066;-80
2022/11/21 06:54:23;;;;;;;5.80;5.38;;;;;;;;;;4820483;29;20107;-80
2022/11/21 06:57:09;;;;;;;5.47;5.00;;;;;;;;;;4827759;29;20146;-79
2022/11/21 06:59:41;;;;;;;4.53;4.22;;;;;;;;;;4797533;29;20563;-79
2022/11/21 07:02:29;;;;;;;5.30;4.63;;;;;;;;;;4794585;29;20134;-83
2022/11/21 07:04:58;;;;;;;5.90;5.45;;;;;;;;;;4822068;29;20046;-80
2022/11/21 07:07:39;;;;;;;5.75;5.30;;;;;;;;;;4816772;29;20043;-78
2022/11/21 07:10:16;;;;;;;7.18;5.80;;;;;;;;;;4806380;29;20108;-79
2022/11/21 07:15:42;;;;;;;5.95;5.30;;;;;;;;;;4806830;29;20370;-80
2022/11/21 07:18:17;;;;;;;4.53;4.13;;;;;;;;;;4813380;29;20512;-80
2022/11/21 07:21:43;;;;;;;5.57;4.32;;;;;;;;;;4828140;29;20523;-79
2022/11/21 07:24:29;;;;;;;7.43;4.47;;;;;;;;;;4830597;29;20069;-79
2022/11/21 07:27:14;;;;;;;5.60;5.20;;;;;;;;;;4831286;29;20424;-79
2022/11/21 07:30:13;;;;;;;7.45;5.57;;;;;;;;;;4822483;29;20516;-80
2022/11/21 07:32:56;;;;;;;4.20;4.05;;;;;;;;;;4814634;29;20083;-83
2022/11/21 07:35:36;;;;;;;5.05;4.85;;;;;;;;;;4834519;29;20110;-80
2022/11/21 07:38:16;;;;;;;8.57;7.35;;;;;;;;;;4807092;29;20073;-80
2022/11/21 07:41:15;;;;;;;6.15;5.85;;;;;;;;;;4821661;29;20037;-80
2022/11/21 07:44:24;;;;;;;5.20;4.90;;;;;;;;;;4777969;29;20058;-80
2022/11/21 07:47:35;;;;;;;4.43;4.22;;;;;;;;;;4807417;29;20045;-81
2022/11/21 07:50:43;;;;;;;4.13;3.92;;;;;;;;;;4806451;29;20425;-80
2022/11/21 07:53:10;;;;;;;4.53;4.00;;;;;;;;;;4806893;29;20053;-80
2022/11/21 07:55:38;;;;;;;5.13;4.82;;;;;;;;;;4811019;29;20055;-80
2022/11/21 07:58:09;;;;;;;4.65;4.43;;;;;;;;;;4825499;29;20137;-80
2022/11/21 08:00:37;;;;;;;5.78;5.53;;;;;;;;;;4826030;29;20050;-79
2022/11/21 08:03:05;;;;;;;7.57;6.57;;;;;;;;;;4831776;29;20076;-80
2022/11/21 08:05:37;;;;;;;7.78;7.35;;;;;;;;;;4831268;29;20096;-80
2022/11/21 08:08:05;;;;;;;7.20;6.68;;;;;;;;;;4828588;29;20046;-80
2022/11/21 08:10:33;;;;;;;9.93;9.13;;;;;;;;;;4827507;29;20046;-81
2022/11/21 08:13:00;;;;;;;7.63;7.05;;;;;;;;;;4825934;29;20050;-80
2022/11/21 08:15:28;;;;;;;7.38;7.05;;;;;;;;;;4836272;29;20038;-81
2022/11/21 08:17:58;;;;;;;6.95;6.63;;;;;;;;;;4850110;24;20078;-70
2022/11/21 08:20:25;;;;;;;9.32;8.65;;;;;;;;;;4815015;29;20077;-70
2022/11/21 08:22:53;;;;;;;7.97;7.60;;;;;;;;;;4822626;29;20154;-70
2022/11/21 08:25:20;;;;;;;9.43;8.93;;;;;;;;;;4815501;29;20047;-70
2022/11/21 08:27:47;;;;;;;7.60;7.25;;;;;;;;;;4805132;29;20047;-70
2022/11/21 08:30:14;;;;;;;8.00;7.57;;;;;;;;;;4794141;29;20047;-70
2022/11/21 08:32:42;;;;;;;9.15;8.65;;;;;;;;;;4781759;30;20051;-69
2022/11/21 08:35:09;;;;;;;9.20;8.63;;;;;;;;;;4784898;29;20057;-69
2022/11/21 08:37:37;;;;;;;10.48;9.90;;;;;;;;;;4809278;29;20047;-70
2022/11/21 08:40:04;;;;;;;7.00;6.72;;;;;;;;;;4802147;29;20074;-70
2022/11/21 08:42:31;;;;;;;7.95;7.43;;;;;;;;;;4787712;29;20047;-70
2022/11/21 08:44:59;;;;;;;8.45;7.78;;;;;;;;;;4781144;30;20055;-68
2022/11/21 08:47:26;;;;;;;8.20;7.57;;;;;;;;;;4790565;29;20051;-70
2022/11/21 08:49:53;;;;;;;12.27;11.57;;;;;;;;;;4798955;29;20583;-70
2022/11/21 08:52:21;;;;;;;6.47;6.10;;;;;;;;;;4798458;29;20046;-69
2022/11/21 08:54:48;;;;;;;6.10;5.75;;;;;;;;;;4782740;29;20054;-69
2022/11/21 08:57:15;;;;;;;4.15;3.85;;;;;;;;;;4799037;29;20051;-69
2022/11/21 08:59:43;;;;;;;7.80;7.38;;;;;;;;;;4802360;29;20411;-70
2022/11/21 09:02:10;;;;;;;5.78;5.43;;;;;;;;;;4801768;29;20043;-70
2022/11/21 09:04:38;;;;;;;10.02;9.32;;;;;;;;;;4790046;29;20054;-70
2022/11/21 09:07:05;;;;;;;18.92;17.90;;;;;;;;;;4784524;30;20105;-70
2022/11/21 09:09:33;;;;;;;7.45;6.95;;;;;;;;;;4784326;30;20527;-70
2022/11/21 09:12:01;;;;;;;5.22;4.93;;;;;;;;;;4798719;29;20051;-70
2022/11/21 09:20:02;;;;;;;6.20;5.38;;;;;;;;;;4769591;29;20046;-70
2022/11/21 09:22:29;;;;;;;7.28;6.90;;;;;;;;;;4783124;29;20059;-70
2022/11/21 09:24:58;;;;;;;50.65;47.20;;;;;;;;;;4767378;30;20385;-70
2022/11/21 09:27:25;;;;;;;6.88;6.43;;;;;;;;;;4767515;30;20055;-70
2022/11/21 09:29:52;;;;;;;7.38;6.90;;;;;;;;;;4767668;30;20413;-70
2022/11/21 09:32:20;;;;;;;5.20;5.00;;;;;;;;;;4782909;30;20051;-70
2022/11/21 09:34:48;;;;;;;9.52;9.02;;;;;;;;;;4779086;29;20054;-69
2022/11/21 09:37:15;;;;;;;6.75;6.35;;;;;;;;;;4798434;29;20058;-69
2022/11/21 09:39:42;;;;;;;6.53;6.18;;;;;;;;;;4814804;29;20542;-69
2022/11/21 09:42:22;;;;;;;11.13;10.43;;;;;;;;;;4783215;30;20078;-70
2022/11/21 09:44:49;;;;;;;7.47;7.07;;;;;;;;;;4781060;29;20129;-69
2022/11/21 09:47:16;;;;;;;11.48;10.88;;;;;;;;;;4812772;29;20515;-69
2022/11/21 09:49:46;;;;;;;6.38;5.88;;;;;;;;;;4819287;29;20077;-69
2022/11/21 09:52:15;;;;;;;25.17;23.55;;;;;;;;;;4782794;29;20066;-70
2022/11/21 09:54:48;;;;;;;5.05;4.75;;;;;;;;;;4782914;29;20468;-70
2022/11/21 09:57:17;;;;;;;23.67;22.15;;;;;;;;;;4783203;30;20055;-69
2022/11/21 09:59:45;;;;;;;10.93;10.23;;;;;;;;;;4771049;29;20612;-69
2022/11/21 10:02:15;;;;;;;8.35;7.82;;;;;;;;;;4800957;29;20065;-70
2022/11/21 10:04:42;;;;;;;6.28;5.93;;;;;;;;;;4801404;29;20051;-69
2022/11/21 10:07:15;;;;;;;24.42;22.85;;;;;;;;;;4802118;29;20116;-69
2022/11/21 10:09:52;;;;;;;6.35;6.05;;;;;;;;;;4786807;29;20074;-69
2022/11/21 10:12:35;;;;;;;7.32;5.88;;;;;;;;;;4804860;29;20478;-70
2022/11/21 10:15:19;;;;;;;7.70;7.20;;;;;;;;;;4792147;29;20051;-70
2022/11/21 10:18:00;;;;;;;7.57;7.18;;;;;;;;;;4797258;29;20054;-70
2022/11/21 10:20:33;;;;;;;6.45;6.13;;;;;;;;;;4784711;29;20118;-69
2022/11/21 10:23:09;;;;;;;8.95;8.43;;;;;;;;;;4788108;29;20050;-70
2022/11/21 10:25:37;;;;;;;9.88;9.27;;;;;;;;;;4778815;29;20207;-69
2022/11/21 10:28:14;;;;;;;7.38;6.97;;;;;;;;;;4795532;29;20042;-69
2022/11/21 10:30:43;;;;;;;8.63;7.38;;;;;;;;;;4789246;29;20044;-70
2022/11/21 10:33:30;;;;;;;8.65;8.10;;;;;;;;;;4782855;29;20373;-69
2022/11/21 10:36:00;;;;;;;7.10;6.75;;;;;;;;;;4785097;29;20138;-69
2022/11/21 10:38:28;;;;;;;15.75;14.77;;;;;;;;;;4801125;29;20101;-69
2022/11/21 10:41:01;;;;;;;8.45;7.95;;;;;;;;;;4784739;29;20108;-69
2022/11/21 10:46:25;;;;;;;6.30;6.00;;;;;;;;;;4782425;29;20043;-69
2022/11/21 10:49:00;;;;;;;5.47;5.18;;;;;;;;;;4792715;29;20058;-69
2022/11/21 10:51:33;;;;;;;8.73;8.30;;;;;;;;;;4790342;29;20043;-69
2022/11/21 10:56:56;;;;;;;14.52;13.55;;;;;;;;;;4787688;29;20047;-70
2022/11/21 10:59:25;;;;;;;90.15;82.38;;;;;;;;;;4790457;29;20058;-70
2022/11/21 11:02:12;;;;;;;6.78;6.47;;;;;;;;;;4795260;29;20061;-69
2022/11/21 11:04:40;;;;;;;4.18;4.00;;;;;;;;;;4787053;29;20051;-69
2022/11/21 11:07:26;;;;;;;5.65;5.45;;;;;;;;;;4787249;29;20127;-69
2022/11/21 11:10:13;;;;;;;9.27;8.77;;;;;;;;;;4776564;29;20062;-69
2022/11/21 11:15:31;;;;;;;8.15;7.53;;;;;;;;;;4795039;29;20057;-69
2022/11/21 11:18:02;;;;;;;6.95;6.50;;;;;;;;;;4784188;29;20055;-69
2022/11/21 11:20:37;;;;;;;6.07;5.68;;;;;;;;;;4785337;29;20074;-69
2022/11/21 11:23:16;;;;;;;8.90;8.45;;;;;;;;;;4797480;29;20051;-69
2022/11/21 11:25:48;;;;;;;8.57;8.18;;;;;;;;;;4778243;29;20161;-70
2022/11/21 11:28:18;;;;;;;9.05;8.55;;;;;;;;;;4775161;29;20070;-69
2022/11/21 11:30:46;;;;;;;7.38;7.00;;;;;;;;;;4771370;29;20046;-70
2022/11/21 11:33:30;;;;;;;9.02;8.43;;;;;;;;;;4802982;29;20591;-69
2022/11/21 11:36:03;;;;;;;7.70;7.30;;;;;;;;;;4800486;29;20094;-69
2022/11/21 11:38:31;;;;;;;9.25;8.63;;;;;;;;;;4796409;29;20550;-70
2022/11/21 11:41:02;;;;;;;6.78;6.45;;;;;;;;;;4768557;29;20054;-70
2022/11/21 11:52:31;;;;;;;5.32;5.03;;;;;;;;;;4798947;29;20047;-69
2022/11/21 11:55:01;;;;;;;6.35;5.97;;;;;;;;;;4802665;29;20062;-69
2022/11/21 11:57:31;;;;;;;6.82;6.38;;;;;;;;;;4807762;29;20126;-70
2022/11/21 12:00:04;;;;;;;6.35;6.05;;;;;;;;;;4812418;29;20088;-70
2022/11/21 12:02:46;;;;;;;16.70;15.68;;;;;;;;;;4794772;29;20043;-70
2022/11/21 12:05:21;;;;;;;9.63;9.10;;;;;;;;;;4804042;29;20038;-69
2022/11/21 12:07:53;;;;;;;16.88;15.93;;;;;;;;;;4801713;29;20047;-69
2022/11/21 12:12:05;;;;;;;5.10;4.70;;;;;;;;;;4801888;29;20046;-71
2022/11/21 12:13:43;;;;;;;12.50;11.70;;;;;;;;;;4811181;29;20100;-70
2022/11/21 12:16:12;;;;;;;7.63;7.20;;;;;;;;;;4792693;29;20046;-70
2022/11/21 12:18:58;;;;;;;6.85;6.50;;;;;;;;;;4810687;29;20070;-70
2022/11/21 12:21:26;;;;;;;10.98;10.27;;;;;;;;;;4802185;29;20046;-70
2022/11/21 12:23:54;;;;;;;8.95;8.18;;;;;;;;;;4806024;29;20515;-70
2022/11/21 12:26:24;;;;;;;13.93;13.10;;;;;;;;;;4803970;29;20059;-70
2022/11/21 12:29:01;;;;;;;10.52;10.00;;;;;;;;;;4805217;29;20051;-70
2022/11/21 12:31:50;;;;;;;6.95;6.60;;;;;;;;;;4811468;29;20374;-70
2022/11/21 12:34:17;;;;;;;5.97;5.55;;;;;;;;;;4808183;29;20049;-70
2022/11/21 12:36:51;;;;;;;10.57;10.00;;;;;;;;;;4788827;29;20055;-71
2022/11/21 12:39:21;;;;;;;7.07;6.57;;;;;;;;;;4790062;29;20057;-70
2022/11/21 12:44:51;;;;;;;4.53;4.30;;;;;;;;;;4795041;29;20047;-70
2022/11/21 12:47:27;;;;;;;6.90;6.38;;;;;;;;;;4797342;29;20339;-70
2022/11/21 12:55:43;;;;;;;7.45;7.13;;;;;;;;;;4820261;29;20439;-71
2022/11/21 12:58:16;;;;;;;9.65;9.05;;;;;;;;;;4820913;29;20054;-71
2022/11/21 13:00:43;;;;;;;11.80;11.00;;;;;;;;;;4821037;29;20081;-70
2022/11/21 13:03:27;;;;;;;11.90;11.18;;;;;;;;;;4820406;29;20534;-70
2022/11/21 13:05:55;;;;;;;8.73;8.20;;;;;;;;;;4820289;29;20524;-71
2022/11/21 13:08:24;;;;;;;10.43;9.80;;;;;;;;;;4820265;29;20576;-70
2022/11/21 13:11:57;;;;;;;11.50;10.85;;;;;;;;;;4820583;29;20420;-70
2022/11/21 13:13:48;;;;;;;6.68;6.35;;;;;;;;;;4820340;29;20427;-70
2022/11/21 13:16:35;;;;;;;14.27;13.43;;;;;;;;;;4820618;29;20046;-70
2022/11/21 13:19:14;;;;;;;5.60;5.30;;;;;;;;;;4820418;29;20413;-70
2022/11/21 13:21:41;;;;;;;6.28;5.97;;;;;;;;;;4820116;29;20089;-70
2022/11/21 13:24:09;;;;;;;10.20;9.55;;;;;;;;;;4820338;29;20055;-70
2022/11/21 13:26:36;;;;;;;14.90;14.02;;;;;;;;;;4820120;29;20046;-70
2022/11/21 13:29:08;;;;;;;15.02;14.18;;;;;;;;;;4803558;29;20042;-70
2022/11/21 13:31:35;;;;;;;12.05;11.40;;;;;;;;;;4819875;29;20058;-70
2022/11/21 13:34:03;;;;;;;11.57;10.70;;;;;;;;;;4820961;29;20189;-70
2022/11/21 13:36:31;;;;;;;7.85;7.43;;;;;;;;;;4820409;29;20074;-70
2022/11/21 13:38:58;;;;;;;7.95;7.47;;;;;;;;;;4820090;29;20050;-70
2022/11/21 13:44:30;;;;;;;9.50;9.02;;;;;;;;;;4819602;29;20050;-70
2022/11/21 13:47:03;;;;;;;10.70;9.95;;;;;;;;;;4820252;29;20054;-70
2022/11/21 13:49:36;;;;;;;9.88;9.32;;;;;;;;;;4819971;29;20504;-70
2022/11/21 13:52:11;;;;;;;8.63;8.13;;;;;;;;;;4819864;29;20147;-70
2022/11/21 13:54:53;;;;;;;9.75;9.30;;;;;;;;;;4820203;29;20050;-70
2022/11/21 13:57:30;;;;;;;8.73;8.27;;;;;;;;;;4820457;29;20057;-70
2022/11/21 14:00:02;;;;;;;8.63;8.02;;;;;;;;;;4819581;29;20522;-70
2022/11/21 14:02:37;;;;;;;8.82;8.40;;;;;;;;;;4803160;29;20781;-70
2022/11/21 14:05:10;;;;;;;11.02;10.25;;;;;;;;;;4819466;29;20507;-70
2022/11/21 14:07:38;;;;;;;12.25;11.60;;;;;;;;;;4803876;29;20538;-70
2022/11/21 14:10:24;;;;;;;9.40;8.65;;;;;;;;;;4819457;29;20058;-70
2022/11/21 14:12:53;;;;;;;9.63;8.82;;;;;;;;;;4819812;29;20046;-70
2022/11/21 14:15:20;;;;;;;9.98;9.27;;;;;;;;;;4819727;29;20111;-70
2022/11/21 14:17:53;;;;;;;11.80;10.93;;;;;;;;;;4889436;24;20057;-75
2022/11/21 14:20:28;;;;;;;11.82;10.82;;;;;;;;;;4820590;29;20046;-74
2022/11/21 14:22:58;;;;;;;10.65;9.90;;;;;;;;;;4803689;29;20074;-75
2022/11/21 14:25:32;;;;;;;13.10;12.18;;;;;;;;;;4820331;29;20295;-75
2022/11/21 14:27:59;;;;;;;11.88;10.88;;;;;;;;;;4820404;29;20471;-75
2022/11/21 14:30:30;;;;;;;8.95;8.35;;;;;;;;;;4819810;29;20046;-75
2022/11/21 14:33:14;;;;;;;9.63;8.93;;;;;;;;;;4820253;29;20050;-75
2022/11/21 14:35:41;;;;;;;10.07;9.32;;;;;;;;;;4820112;29;20102;-75
2022/11/21 14:38:11;;;;;;;11.48;10.55;;;;;;;;;;4803926;29;20054;-75
2022/11/21 14:40:39;;;;;;;7.60;7.10;;;;;;;;;;4820037;29;20054;-75
2022/11/21 14:43:25;;;;;;;10.10;9.35;;;;;;;;;;4819734;29;20414;-75
2022/11/21 14:45:55;;;;;;;8.38;7.80;;;;;;;;;;4803904;29;20062;-75
2022/11/21 14:48:28;;;;;;;8.68;7.97;;;;;;;;;;4819762;29;20046;-75
2022/11/21 14:50:59;;;;;;;12.35;11.45;;;;;;;;;;4821084;29;20054;-75
2022/11/21 14:53:28;;;;;;;13.70;12.45;;;;;;;;;;4820550;29;20054;-75
2022/11/21 14:55:55;;;;;;;30.40;19.23;;;;;;;;;;4804065;29;20054;-76
2022/11/21 14:58:28;;;;;;;31.92;19.83;;;;;;;;;;4803601;29;20440;-74
2022/11/21 15:01:02;;;;;;;23.92;16.13;;;;;;;;;;4819602;29;20427;-74
2022/11/21 15:03:30;;;;;;;28.58;19.58;;;;;;;;;;4804075;29;20046;-75
2022/11/21 15:05:58;;;;;;;20.13;13.88;;;;;;;;;;4803274;29;20069;-74
2022/11/21 15:08:35;;;;;;;13.13;11.93;;;;;;;;;;4820081;29;20046;-76
2022/11/21 15:11:23;;;;;;;14.52;13.13;;;;;;;;;;4819908;29;20476;-75
2022/11/21 15:13:55;;;;;;;19.05;17.27;;;;;;;;;;4819790;29;20062;-75
2022/11/21 15:16:45;;;;;;;16.17;14.63;;;;;;;;;;4775836;29;20146;-75
2022/11/21 15:19:41;;;;;;;10.88;9.80;;;;;;;;;;4788756;29;20141;-75
2022/11/21 15:22:38;;;;;;;9.90;8.90;;;;;;;;;;4797570;29;20082;-75
2022/11/21 15:25:14;;;;;;;13.55;12.35;;;;;;;;;;4777420;29;20059;-76
2022/11/21 15:27:42;;;;;;;14.27;12.77;;;;;;;;;;4786983;29;20051;-75
2022/11/21 15:30:11;;;;;;;19.98;18.08;;;;;;;;;;4767177;30;20054;-75
2022/11/21 15:32:57;;;;;;;20.65;15.63;;;;;;;;;;4782538;30;20047;-75
2022/11/21 15:35:27;;;;;;;23.08;15.82;;;;;;;;;;4783097;30;20059;-75
2022/11/21 15:37:58;;;;;;;23.75;16.75;;;;;;;;;;4783247;30;20090;-75
2022/11/21 15:40:25;;;;;;;28.05;18.50;;;;;;;;;;4782883;30;20062;-75
2022/11/21 15:42:53;;;;;;;21.83;14.65;;;;;;;;;;4782754;30;20116;-75
2022/11/21 15:45:22;;;;;;;20.75;13.82;;;;;;;;;;4766630;30;20062;-75
2022/11/21 15:47:50;;;;;;;14.95;11.55;;;;;;;;;;4765975;30;20051;-75
2022/11/21 15:50:17;;;;;;;13.82;12.38;;;;;;;;;;4782846;30;20050;-75
2022/11/21 15:52:48;;;;;;;13.07;11.73;;;;;;;;;;4785142;30;20047;-75
2022/11/21 15:55:27;;;;;;;12.70;11.55;;;;;;;;;;4767162;30;20459;-75
2022/11/21 15:57:55;;;;;;;13.57;12.23;;;;;;;;;;4783877;30;20051;-75
2022/11/21 16:00:22;;;;;;;13.70;12.20;;;;;;;;;;4788436;30;20059;-75
2022/11/21 16:02:52;;;;;;;14.10;12.30;;;;;;;;;;4769040;30;20070;-75
2022/11/21 16:05:19;;;;;;;14.05;11.73;;;;;;;;;;4782586;30;20047;-75
2022/11/21 16:07:47;;;;;;;15.10;13.45;;;;;;;;;;4767221;30;20407;-75
2022/11/21 16:10:18;;;;;;;15.82;14.32;;;;;;;;;;4790311;29;20133;-75
2022/11/21 16:12:54;;;;;;;19.70;15.57;;;;;;;;;;4800305;29;20067;-75
2022/11/21 16:15:21;;;;;;;23.20;18.83;;;;;;;;;;4800755;29;20088;-75
2022/11/21 16:17:48;;;;;;;19.33;14.73;;;;;;;;;;4777734;29;20278;-75
2022/11/21 16:20:16;;;;;;;13.02;10.75;;;;;;;;;;4800630;29;20058;-76
2022/11/21 16:22:43;;;;;;;11.23;9.75;;;;;;;;;;4800733;29;20066;-75
2022/11/21 16:25:14;;;;;;;10.55;9.50;;;;;;;;;;4769800;29;20530;-75
2022/11/21 16:27:41;;;;;;;11.77;9.55;;;;;;;;;;4800798;29;20050;-75
2022/11/21 16:30:09;;;;;;;8.50;7.65;;;;;;;;;;4784807;29;20336;-75
2022/11/21 16:32:36;;;;;;;10.60;9.57;;;;;;;;;;4800493;29;20055;-75
2022/11/21 16:35:04;;;;;;;13.93;12.52;;;;;;;;;;4784321;29;20053;-76
2022/11/21 16:37:32;;;;;;;16.08;13.95;;;;;;;;;;4784646;29;20047;-75
2022/11/21 16:40:00;;;;;;;15.25;13.63;;;;;;;;;;4784314;29;20115;-75
2022/11/21 16:42:27;;;;;;;16.52;14.65;;;;;;;;;;4800224;29;20055;-75
2022/11/21 16:44:54;;;;;;;14.90;12.23;;;;;;;;;;4800383;29;20070;-75
2022/11/21 16:47:22;;;;;;;12.18;11.13;;;;;;;;;;4769577;29;20055;-75
2022/11/21 16:49:49;;;;;;;14.15;12.77;;;;;;;;;;4800539;29;20077;-76
2022/11/21 16:52:16;;;;;;;18.05;15.68;;;;;;;;;;4800164;29;20051;-76
2022/11/21 16:54:44;;;;;;;16.25;14.32;;;;;;;;;;4784619;29;20104;-75
2022/11/21 16:57:16;;;;;;;25.15;19.88;;;;;;;;;;4794264;29;20139;-74
2022/11/21 16:59:44;;;;;;;20.88;16.30;;;;;;;;;;4783129;29;20061;-76
2022/11/21 17:02:11;;;;;;;18.08;13.75;;;;;;;;;;4799879;29;20051;-75
2022/11/21 17:04:38;;;;;;;13.63;12.30;;;;;;;;;;4783545;29;20141;-75
2022/11/21 17:07:06;;;;;;;14.23;12.57;;;;;;;;;;4798577;29;20270;-75
2022/11/21 17:09:33;;;;;;;13.95;11.88;;;;;;;;;;4791604;29;20123;-76
2022/11/21 17:12:01;;;;;;;16.08;12.40;;;;;;;;;;4776825;29;20047;-76
2022/11/21 17:14:28;;;;;;;16.73;14.02;;;;;;;;;;4798530;29;20058;-76
2022/11/21 17:16:57;;;;;;;24.75;18.98;;;;;;;;;;4790892;29;20043;-76
2022/11/21 17:19:28;;;;;;;;;;;;;;;;;;4795057;29;20051;-75
2022/11/21 17:21:55;;;;;;;22.83;17.50;;;;;;;;;;4802386;29;20365;-75
2022/11/21 17:24:23;;;;;;;17.17;14.38;;;;;;;;;;4803330;29;20120;-75
2022/11/21 17:26:50;;;;;;;16.77;14.30;;;;;;;;;;4791538;29;20043;-75
2022/11/21 17:29:17;;;;;;;23.17;17.20;;;;;;;;;;4799422;29;20042;-75
2022/11/21 17:31:44;;;;;;;22.30;15.90;;;;;;;;;;4800842;29;20051;-76
2022/11/21 17:34:14;;;;;;;22.67;18.08;;;;;;;;;;4786922;29;20074;-76
2022/11/21 17:36:41;;;;;;;21.80;17.45;;;;;;;;;;4795885;29;20073;-75
2022/11/21 17:39:09;;;;;;;26.90;20.17;;;;;;;;;;4788831;29;20586;-75
2022/11/21 17:41:38;;;;;;;22.67;19.20;;;;;;;;;;4796949;29;20052;-76
2022/11/21 17:44:06;;;;;;;21.73;19.25;;;;;;;;;;4795267;29;20046;-74
2022/11/21 17:46:34;;;;;;;17.05;15.20;;;;;;;;;;4816170;29;20469;-75
2022/11/21 17:49:01;;;;;;;16.50;14.23;;;;;;;;;;4802275;29;20054;-75
2022/11/21 17:54:26;;;;;;;17.90;15.15;;;;;;;;;;4791258;29;20069;-75
2022/11/21 17:56:54;;;;;;;22.25;17.90;;;;;;;;;;4768988;30;20057;-76
2022/11/21 17:59:23;;;;;;;18.48;16.15;;;;;;;;;;4787054;29;20125;-74